High Tide — D5AA7 — position and weather

sailwx.info

Track history (hours):
 
Tides and Currents Weather Stations Pressure Air Temp Water Temp Dewpoint Dewpoint Depression Visibility Wind Speed Wind Dir Waves Ship Positions

High Tide

Last reported at 2018-Jan-23 23:55 UTC. Time now 2018-Feb-19 16:17 UTC.
Position N 35°59' W 025°51'.
Warning: this ship's position is 26 days out of date.

Length 183 m; draft 10.8 m.

Type: Tanker. MMSI: 636015337.

Date/timePositionNaut miles runAvg speedWind from/ knotsBaromVisibWave heightAir tempDewpointWater temp
2018-Jan-23 23:55N 35°59' W 025°51'513.4
2018-Jan-23 23:30N 36°01' W 025°44'713.4
2018-Jan-23 23:00N 36°03' W 025°36'713.6
2018-Jan-23 22:30N 36°05' W 025°29'713.5
2018-Jan-23 22:00N 36°07' W 025°21'713.4
2018-Jan-23 21:30N 36°10' W 025°13'713.5
2018-Jan-23 21:00N 36°12' W 025°05'713.5
2018-Jan-23 20:30N 36°14' W 024°57'713.4
2018-Jan-23 20:00N 36°16' W 024°49'713.5
2018-Jan-23 19:30N 36°20' W 024°42'713.6
2018-Jan-23 19:00N 36°24' W 024°35'713.4
2018-Jan-23 18:30N 36°27' W 024°28'713.6
2018-Jan-23 18:00N 36°31' W 024°21'713.3
2018-Jan-23 17:30N 36°35' W 024°14'713.0
2018-Jan-23 17:00N 36°39' W 024°08'713.3
2018-Jan-23 16:30N 36°42' W 024°01'713.3
2018-Jan-23 16:00N 36°46' W 023°54'713.4
2018-Jan-23 15:30N 36°49' W 023°47'713.3
2018-Jan-23 15:00N 36°53' W 023°40'1013.6
2018-Jan-23 14:18N 36°59' W 023°30'  
2018-Jan-19 11:50N 49°49' W 003°21'1112.5
2018-Jan-19 10:58N 49°55' W 003°07'511.6
2018-Jan-19 10:30N 49°58' W 003°00'611.1
2018-Jan-19 10:00N 49°59' W 002°52'510.5
2018-Jan-19 09:30N 50°01' W 002°44'9412.5
2018-Jan-19 01:58N 50°26' W 000°22'613.5
2018-Jan-19 01:30N 50°28' W 000°12'612.8
2018-Jan-19 01:00N 50°30' W 000°03'612.3
2018-Jan-19 00:30N 50°32' E 000°06'611.7
2018-Jan-19 00:00N 50°34' E 000°15'611.1
2018-Jan-18 23:30N 50°35' E 000°23'510.8
2018-Jan-18 23:00N 50°37' E 000°31'510.6
2018-Jan-18 22:30N 50°39' E 000°39'510.9
2018-Jan-18 22:00N 50°42' E 000°46'611.3
2018-Jan-18 21:30N 50°45' E 000°54'612.1
2018-Jan-18 21:00N 50°49' E 001°01'1313.8
2018-Jan-18 20:06N 50°57' E 001°15'114.7
2018-Jan-18 20:01N 50°58' E 001°17'815.1
2018-Jan-18 19:31N 51°03' E 001°26'715.0
2018-Jan-18 19:01N 51°08' E 001°36'714.8
2018-Jan-18 18:31N 51°13' E 001°45'713.9
2018-Jan-18 18:01N 51°18' E 001°51'613.0
2018-Jan-18 17:30N 51°24' E 001°55'611.5
2018-Jan-18 17:00N 51°29' E 001°59'611.6
2018-Jan-18 16:30N 51°34' E 002°05'611.6
2018-Jan-18 15:58N 51°38' E 002°12'79 8.0
2018-Jan-18 06:01N 52°30' E 003°50'0 8.4
2018-Jan-18 05:58N 52°30' E 003°50'4 8.6
2018-Jan-18 05:30N 52°30' E 003°57'4 9.0
2018-Jan-18 05:00N 52°30' E 004°04'5 9.8
2018-Jan-18 04:30N 52°30' E 004°12'510.8
2018-Jan-18 04:00N 52°29' E 004°21'4 8.0
2018-Jan-18 03:30N 52°29' E 004°28'5 9.1
2018-Jan-18 03:01N 52°28' E 004°35'1 1.8
2018-Jan-18 02:31N 52°28' E 004°37'1 2.6
2018-Jan-18 02:00N 52°28' E 004°39'4 7.9
2018-Jan-18 01:30N 52°26' E 004°44'2 4.4
2018-Jan-18 01:00N 52°24' E 004°47'0 0.1
2018-Jan-17 23:58N 52°24' E 004°47'0 0.0
2018-Jan-17 23:55N 52°24' E 004°47'  
Track history (hours):
 
Tides and Currents Weather Stations Pressure Air Temp Water Temp Dewpoint Dewpoint Depression Visibility Wind Speed Wind Dir Waves Ship Positions

High Tide

Last reported at 2018-Jan-23 23:55 UTC. Time now 2018-Feb-19 16:17 UTC.
Position N 35°59' W 025°51'.
Warning: this ship's position is 26 days out of date.

Length 183 m; draft 10.8 m.

Type: Tanker. MMSI: 636015337.

Date/timePositionNaut miles runAvg speedWind from/ knotsBaromVisibWave heightAir tempDewpointWater temp
2018-Jan-23 23:55N 35°59' W 025°51'513.4
2018-Jan-23 23:30N 36°01' W 025°44'713.4
2018-Jan-23 23:00N 36°03' W 025°36'713.6
2018-Jan-23 22:30N 36°05' W 025°29'713.5
2018-Jan-23 22:00N 36°07' W 025°21'713.4
2018-Jan-23 21:30N 36°10' W 025°13'713.5
2018-Jan-23 21:00N 36°12' W 025°05'713.5
2018-Jan-23 20:30N 36°14' W 024°57'713.4
2018-Jan-23 20:00N 36°16' W 024°49'713.5
2018-Jan-23 19:30N 36°20' W 024°42'713.6
2018-Jan-23 19:00N 36°24' W 024°35'713.4
2018-Jan-23 18:30N 36°27' W 024°28'713.6
2018-Jan-23 18:00N 36°31' W 024°21'713.3
2018-Jan-23 17:30N 36°35' W 024°14'713.0
2018-Jan-23 17:00N 36°39' W 024°08'713.3
2018-Jan-23 16:30N 36°42' W 024°01'713.3
2018-Jan-23 16:00N 36°46' W 023°54'713.4
2018-Jan-23 15:30N 36°49' W 023°47'713.3
2018-Jan-23 15:00N 36°53' W 023°40'1013.6
2018-Jan-23 14:18N 36°59' W 023°30'  
2018-Jan-19 11:50N 49°49' W 003°21'1112.5
2018-Jan-19 10:58N 49°55' W 003°07'511.6
2018-Jan-19 10:30N 49°58' W 003°00'611.1
2018-Jan-19 10:00N 49°59' W 002°52'510.5
2018-Jan-19 09:30N 50°01' W 002°44'9412.5
2018-Jan-19 01:58N 50°26' W 000°22'613.5
2018-Jan-19 01:30N 50°28' W 000°12'612.8
2018-Jan-19 01:00N 50°30' W 000°03'612.3
2018-Jan-19 00:30N 50°32' E 000°06'611.7
2018-Jan-19 00:00N 50°34' E 000°15'611.1
2018-Jan-18 23:30N 50°35' E 000°23'510.8
2018-Jan-18 23:00N 50°37' E 000°31'510.6
2018-Jan-18 22:30N 50°39' E 000°39'510.9
2018-Jan-18 22:00N 50°42' E 000°46'611.3
2018-Jan-18 21:30N 50°45' E 000°54'612.1
2018-Jan-18 21:00N 50°49' E 001°01'1313.8
2018-Jan-18 20:06N 50°57' E 001°15'114.7
2018-Jan-18 20:01N 50°58' E 001°17'815.1
2018-Jan-18 19:31N 51°03' E 001°26'715.0
2018-Jan-18 19:01N 51°08' E 001°36'714.8
2018-Jan-18 18:31N 51°13' E 001°45'713.9
2018-Jan-18 18:01N 51°18' E 001°51'613.0
2018-Jan-18 17:30N 51°24' E 001°55'611.5
2018-Jan-18 17:00N 51°29' E 001°59'611.6
2018-Jan-18 16:30N 51°34' E 002°05'611.6
2018-Jan-18 15:58N 51°38' E 002°12'79 8.0
2018-Jan-18 06:01N 52°30' E 003°50'0 8.4
2018-Jan-18 05:58N 52°30' E 003°50'4 8.6
2018-Jan-18 05:30N 52°30' E 003°57'4 9.0
2018-Jan-18 05:00N 52°30' E 004°04'5 9.8
2018-Jan-18 04:30N 52°30' E 004°12'510.8
2018-Jan-18 04:00N 52°29' E 004°21'4 8.0
2018-Jan-18 03:30N 52°29' E 004°28'5 9.1
2018-Jan-18 03:01N 52°28' E 004°35'1 1.8
2018-Jan-18 02:31N 52°28' E 004°37'1 2.6
2018-Jan-18 02:00N 52°28' E 004°39'4 7.9
2018-Jan-18 01:30N 52°26' E 004°44'2 4.4
2018-Jan-18 01:00N 52°24' E 004°47'0 0.1
2018-Jan-17 23:58N 52°24' E 004°47'0 0.0
2018-Jan-17 23:55N 52°24' E 004°47'  

Dump ship's entire track history